sensor_id;sensor_type;location;lat;lon;timestamp;P1;durP1;ratioP1;P2;durP2;ratioP2
61642;SDS011;47551;52.506;4.678;2023-11-19T00:00:13;28.85;;;6.93;;
61642;SDS011;47551;52.506;4.678;2023-11-19T00:00:34;29.70;;;7.53;;
61642;SDS011;47551;52.506;4.678;2023-11-19T00:00:55;28.27;;;6.47;;
61642;SDS011;47551;52.506;4.678;2023-11-19T00:01:15;26.27;;;6.67;;
61642;SDS011;47551;52.506;4.678;2023-11-19T00:01:36;30.17;;;6.85;;
61642;SDS011;47551;52.506;4.678;2023-11-19T00:01:56;33.00;;;7.27;;
61642;SDS011;47551;52.506;4.678;2023-11-19T00:02:17;32.42;;;7.22;;
61642;SDS011;47551;52.506;4.678;2023-11-19T00:02:38;31.13;;;6.95;;
61642;SDS011;47551;52.506;4.678;2023-11-19T00:02:59;32.45;;;7.10;;
61642;SDS011;47551;52.506;4.678;2023-11-19T00:03:19;26.93;;;7.10;;
61642;SDS011;47551;52.506;4.678;2023-11-19T00:03:40;26.80;;;7.00;;
61642;SDS011;47551;52.506;4.678;2023-11-19T00:04:00;33.97;;;7.23;;
61642;SDS011;47551;52.506;4.678;2023-11-19T00:04:20;27.33;;;6.83;;
61642;SDS011;47551;52.506;4.678;2023-11-19T00:04:40;28.83;;;7.30;;
61642;SDS011;47551;52.506;4.678;2023-11-19T00:05:01;32.23;;;7.10;;
61642;SDS011;47551;52.506;4.678;2023-11-19T00:05:21;31.70;;;6.67;;
61642;SDS011;47551;52.506;4.678;2023-11-19T00:05:41;29.75;;;6.95;;
61642;SDS011;47551;52.506;4.678;2023-11-19T00:06:01;34.80;;;7.20;;
61642;SDS011;47551;52.506;4.678;2023-11-19T00:06:22;31.10;;;6.18;;
61642;SDS011;47551;52.506;4.678;2023-11-19T00:06:43;33.93;;;7.10;;
61642;SDS011;47551;52.506;4.678;2023-11-19T00:07:03;29.02;;;6.50;;
61642;SDS011;47551;52.506;4.678;2023-11-19T00:07:25;25.42;;;6.30;;
61642;SDS011;47551;52.506;4.678;2023-11-19T00:07:45;24.17;;;5.97;;
61642;SDS011;47551;52.506;4.678;2023-11-19T00:08:06;31.10;;;6.68;;
61642;SDS011;47551;52.506;4.678;2023-11-19T00:08:26;29.77;;;6.83;;
61642;SDS011;47551;52.506;4.678;2023-11-19T00:08:47;31.23;;;7.13;;
61642;SDS011;47551;52.506;4.678;2023-11-19T00:09:07;32.25;;;6.95;;
61642;SDS011;47551;52.506;4.678;2023-11-19T00:09:28;36.00;;;7.53;;
61642;SDS011;47551;52.506;4.678;2023-11-19T00:09:48;27.63;;;6.67;;
61642;SDS011;47551;52.506;4.678;2023-11-19T00:10:12;25.47;;;6.00;;
61642;SDS011;47551;52.506;4.678;2023-11-19T00:10:32;29.15;;;5.93;;
61642;SDS011;47551;52.506;4.678;2023-11-19T00:10:52;25.53;;;5.77;;
61642;SDS011;47551;52.506;4.678;2023-11-19T00:11:12;28.00;;;6.27;;
61642;SDS011;47551;52.506;4.678;2023-11-19T00:11:35;28.52;;;6.43;;
61642;SDS011;47551;52.506;4.678;2023-11-19T00:11:56;29.70;;;6.90;;
61642;SDS011;47551;52.506;4.678;2023-11-19T00:12:16;30.87;;;7.10;;
61642;SDS011;47551;52.506;4.678;2023-11-19T00:12:37;29.08;;;6.65;;
61642;SDS011;47551;52.506;4.678;2023-11-19T00:12:57;28.58;;;6.32;;
61642;SDS011;47551;52.506;4.678;2023-11-19T00:13:17;29.33;;;6.83;;
61642;SDS011;47551;52.506;4.678;2023-11-19T00:13:37;27.33;;;6.30;;
61642;SDS011;47551;52.506;4.678;2023-11-19T00:13:58;28.13;;;6.77;;
61642;SDS011;47551;52.506;4.678;2023-11-19T00:14:18;28.27;;;6.57;;
61642;SDS011;47551;52.506;4.678;2023-11-19T00:14:38;31.70;;;6.77;;
61642;SDS011;47551;52.506;4.678;2023-11-19T00:14:58;29.57;;;7.27;;
61642;SDS011;47551;52.506;4.678;2023-11-19T00:15:18;27.47;;;6.70;;
61642;SDS011;47551;52.506;4.678;2023-11-19T00:15:38;28.07;;;6.87;;
61642;SDS011;47551;52.506;4.678;2023-11-19T00:15:59;31.92;;;7.35;;
61642;SDS011;47551;52.506;4.678;2023-11-19T00:16:19;28.27;;;6.83;;
61642;SDS011;47551;52.506;4.678;2023-11-19T00:16:39;28.53;;;6.87;;
61642;SDS011;47551;52.506;4.678;2023-11-19T00:16:59;29.30;;;7.23;;
61642;SDS011;47551;52.506;4.678;2023-11-19T00:17:19;30.95;;;7.50;;
61642;SDS011;47551;52.506;4.678;2023-11-19T00:17:40;31.73;;;7.10;;
61642;SDS011;47551;52.506;4.678;2023-11-19T00:18:07;28.33;;;6.30;;
61642;SDS011;47551;52.506;4.678;2023-11-19T00:18:27;32.13;;;7.38;;
61642;SDS011;47551;52.506;4.678;2023-11-19T00:18:47;27.85;;;6.03;;
61642;SDS011;47551;52.506;4.678;2023-11-19T00:19:07;33.67;;;7.30;;
61642;SDS011;47551;52.506;4.678;2023-11-19T00:19:28;34.97;;;7.65;;
61642;SDS011;47551;52.506;4.678;2023-11-19T00:19:48;29.93;;;7.00;;
61642;SDS011;47551;52.506;4.678;2023-11-19T00:20:11;27.30;;;6.30;;
61642;SDS011;47551;52.506;4.678;2023-11-19T00:20:31;28.90;;;6.53;;
61642;SDS011;47551;52.506;4.678;2023-11-19T00:20:52;27.17;;;6.67;;
61642;SDS011;47551;52.506;4.678;2023-11-19T00:21:12;30.23;;;7.03;;
61642;SDS011;47551;52.506;4.678;2023-11-19T00:21:32;32.27;;;7.73;;
61642;SDS011;47551;52.506;4.678;2023-11-19T00:21:53;27.63;;;6.95;;
61642;SDS011;47551;52.506;4.678;2023-11-19T00:22:13;33.67;;;7.20;;
61642;SDS011;47551;52.506;4.678;2023-11-19T00:22:33;33.13;;;6.93;;
61642;SDS011;47551;52.506;4.678;2023-11-19T00:22:53;28.03;;;6.83;;
61642;SDS011;47551;52.506;4.678;2023-11-19T00:23:14;29.40;;;6.60;;
61642;SDS011;47551;52.506;4.678;2023-11-19T00:23:34;33.60;;;6.90;;
61642;SDS011;47551;52.506;4.678;2023-11-19T00:23:54;33.03;;;7.13;;
61642;SDS011;47551;52.506;4.678;2023-11-19T00:24:14;33.43;;;7.73;;
61642;SDS011;47551;52.506;4.678;2023-11-19T00:24:36;32.28;;;7.20;;
61642;SDS011;47551;52.506;4.678;2023-11-19T00:24:56;31.75;;;6.70;;
61642;SDS011;47551;52.506;4.678;2023-11-19T00:25:20;34.13;;;6.73;;
61642;SDS011;47551;52.506;4.678;2023-11-19T00:25:41;34.08;;;7.28;;
61642;SDS011;47551;52.506;4.678;2023-11-19T00:26:01;28.47;;;7.53;;
61642;SDS011;47551;52.506;4.678;2023-11-19T00:26:22;31.03;;;7.23;;
61642;SDS011;47551;52.506;4.678;2023-11-19T00:26:42;32.27;;;7.37;;
61642;SDS011;47551;52.506;4.678;2023-11-19T00:27:02;34.10;;;7.50;;
61642;SDS011;47551;52.506;4.678;2023-11-19T00:27:23;30.10;;;6.90;;
61642;SDS011;47551;52.506;4.678;2023-11-19T00:27:43;30.15;;;6.63;;
61642;SDS011;47551;52.506;4.678;2023-11-19T00:28:04;30.83;;;6.50;;
61642;SDS011;47551;52.506;4.678;2023-11-19T00:28:31;34.67;;;7.13;;
61642;SDS011;47551;52.506;4.678;2023-11-19T00:28:51;33.30;;;7.50;;
61642;SDS011;47551;52.506;4.678;2023-11-19T00:29:12;32.60;;;7.25;;
61642;SDS011;47551;52.506;4.678;2023-11-19T00:29:33;29.65;;;6.70;;
61642;SDS011;47551;52.506;4.678;2023-11-19T00:29:54;33.28;;;6.88;;
61642;SDS011;47551;52.506;4.678;2023-11-19T00:30:14;26.73;;;6.40;;
61642;SDS011;47551;52.506;4.678;2023-11-19T00:30:34;29.60;;;6.80;;
61642;SDS011;47551;52.506;4.678;2023-11-19T00:30:54;32.17;;;7.15;;
61642;SDS011;47551;52.506;4.678;2023-11-19T00:31:15;33.07;;;7.70;;
61642;SDS011;47551;52.506;4.678;2023-11-19T00:31:35;33.37;;;7.53;;
61642;SDS011;47551;52.506;4.678;2023-11-19T00:31:56;30.02;;;6.85;;
61642;SDS011;47551;52.506;4.678;2023-11-19T00:32:16;31.13;;;7.18;;
61642;SDS011;47551;52.506;4.678;2023-11-19T00:32:36;32.17;;;6.87;;
61642;SDS011;47551;52.506;4.678;2023-11-19T00:32:59;34.05;;;7.10;;
61642;SDS011;47551;52.506;4.678;2023-11-19T00:33:19;30.10;;;6.82;;
61642;SDS011;47551;52.506;4.678;2023-11-19T00:33:39;30.47;;;6.70;;
61642;SDS011;47551;52.506;4.678;2023-11-19T00:33:59;29.67;;;6.77;;
61642;SDS011;47551;52.506;4.678;2023-11-19T00:34:21;29.63;;;6.90;;
61642;SDS011;47551;52.506;4.678;2023-11-19T00:34:51;34.38;;;7.45;;
61642;SDS011;47551;52.506;4.678;2023-11-19T00:35:11;29.13;;;6.90;;
61642;SDS011;47551;52.506;4.678;2023-11-19T00:35:34;32.88;;;6.97;;
61642;SDS011;47551;52.506;4.678;2023-11-19T00:35:54;32.05;;;7.35;;
61642;SDS011;47551;52.506;4.678;2023-11-19T00:36:14;28.40;;;6.83;;
61642;SDS011;47551;52.506;4.678;2023-11-19T00:36:34;34.70;;;7.47;;
61642;SDS011;47551;52.506;4.678;2023-11-19T00:36:54;32.57;;;7.23;;
61642;SDS011;47551;52.506;4.678;2023-11-19T00:37:15;28.88;;;6.97;;
61642;SDS011;47551;52.506;4.678;2023-11-19T00:37:39;31.42;;;6.93;;
61642;SDS011;47551;52.506;4.678;2023-11-19T00:37:59;26.65;;;6.85;;
61642;SDS011;47551;52.506;4.678;2023-11-19T00:38:20;25.30;;;6.20;;
61642;SDS011;47551;52.506;4.678;2023-11-19T00:38:41;26.15;;;6.22;;
61642;SDS011;47551;52.506;4.678;2023-11-19T00:39:01;29.93;;;6.93;;
61642;SDS011;47551;52.506;4.678;2023-11-19T00:39:21;29.80;;;7.03;;
61642;SDS011;47551;52.506;4.678;2023-11-19T00:39:44;30.90;;;7.00;;
61642;SDS011;47551;52.506;4.678;2023-11-19T00:40:06;31.98;;;6.80;;
61642;SDS011;47551;52.506;4.678;2023-11-19T00:40:26;29.30;;;7.25;;
61642;SDS011;47551;52.506;4.678;2023-11-19T00:40:49;30.25;;;6.32;;
61642;SDS011;47551;52.506;4.678;2023-11-19T00:41:09;34.13;;;6.90;;
61642;SDS011;47551;52.506;4.678;2023-11-19T00:41:50;32.22;;;7.15;;
61642;SDS011;47551;52.506;4.678;2023-11-19T00:42:10;27.57;;;6.47;;
61642;SDS011;47551;52.506;4.678;2023-11-19T00:42:30;32.67;;;7.63;;
61642;SDS011;47551;52.506;4.678;2023-11-19T00:42:50;32.50;;;7.27;;
61642;SDS011;47551;52.506;4.678;2023-11-19T00:43:11;31.15;;;6.90;;
61642;SDS011;47551;52.506;4.678;2023-11-19T00:43:31;29.10;;;6.73;;
61642;SDS011;47551;52.506;4.678;2023-11-19T00:43:51;30.33;;;7.47;;
61642;SDS011;47551;52.506;4.678;2023-11-19T00:44:11;28.97;;;7.20;;
61642;SDS011;47551;52.506;4.678;2023-11-19T00:44:34;30.27;;;6.88;;
61642;SDS011;47551;52.506;4.678;2023-11-19T00:44:54;32.00;;;6.87;;
61642;SDS011;47551;52.506;4.678;2023-11-19T00:45:15;32.80;;;7.40;;
61642;SDS011;47551;52.506;4.678;2023-11-19T00:45:35;33.73;;;6.77;;
61642;SDS011;47551;52.506;4.678;2023-11-19T00:45:55;32.40;;;6.70;;
61642;SDS011;47551;52.506;4.678;2023-11-19T00:46:15;27.60;;;6.30;;
61642;SDS011;47551;52.506;4.678;2023-11-19T00:46:36;28.20;;;6.77;;
61642;SDS011;47551;52.506;4.678;2023-11-19T00:46:56;28.30;;;6.55;;
61642;SDS011;47551;52.506;4.678;2023-11-19T00:47:17;27.97;;;6.47;;
61642;SDS011;47551;52.506;4.678;2023-11-19T00:47:40;25.67;;;6.60;;
61642;SDS011;47551;52.506;4.678;2023-11-19T00:48:00;31.83;;;7.40;;
61642;SDS011;47551;52.506;4.678;2023-11-19T00:48:23;31.13;;;7.77;;
61642;SDS011;47551;52.506;4.678;2023-11-19T00:48:43;30.38;;;6.82;;
61642;SDS011;47551;52.506;4.678;2023-11-19T00:49:03;31.33;;;7.30;;
61642;SDS011;47551;52.506;4.678;2023-11-19T00:49:23;36.13;;;7.43;;
61642;SDS011;47551;52.506;4.678;2023-11-19T00:49:44;32.90;;;7.27;;
61642;SDS011;47551;52.506;4.678;2023-11-19T00:50:04;26.87;;;6.67;;
61642;SDS011;47551;52.506;4.678;2023-11-19T00:50:24;29.40;;;7.07;;
61642;SDS011;47551;52.506;4.678;2023-11-19T00:50:45;31.08;;;7.47;;
61642;SDS011;47551;52.506;4.678;2023-11-19T00:51:06;30.48;;;7.20;;
61642;SDS011;47551;52.506;4.678;2023-11-19T00:51:26;28.17;;;7.40;;
61642;SDS011;47551;52.506;4.678;2023-11-19T00:51:47;31.23;;;7.15;;
61642;SDS011;47551;52.506;4.678;2023-11-19T00:52:07;30.23;;;6.83;;
61642;SDS011;47551;52.506;4.678;2023-11-19T00:52:27;28.93;;;7.20;;
61642;SDS011;47551;52.506;4.678;2023-11-19T00:52:47;34.23;;;6.93;;
61642;SDS011;47551;52.506;4.678;2023-11-19T00:53:07;32.60;;;7.00;;
61642;SDS011;47551;52.506;4.678;2023-11-19T00:53:30;27.98;;;6.90;;
61642;SDS011;47551;52.506;4.678;2023-11-19T00:53:52;29.08;;;6.93;;
61642;SDS011;47551;52.506;4.678;2023-11-19T00:54:15;30.27;;;7.13;;
61642;SDS011;47551;52.506;4.678;2023-11-19T00:54:35;29.38;;;7.10;;
61642;SDS011;47551;52.506;4.678;2023-11-19T00:54:55;27.53;;;7.40;;
61642;SDS011;47551;52.506;4.678;2023-11-19T00:55:16;28.23;;;7.90;;
61642;SDS011;47551;52.506;4.678;2023-11-19T00:55:37;27.73;;;7.18;;
61642;SDS011;47551;52.506;4.678;2023-11-19T00:55:57;31.70;;;6.63;;
61642;SDS011;47551;52.506;4.678;2023-11-19T00:56:18;32.77;;;7.17;;
61642;SDS011;47551;52.506;4.678;2023-11-19T00:56:39;31.52;;;7.57;;
61642;SDS011;47551;52.506;4.678;2023-11-19T00:56:59;30.63;;;6.87;;
61642;SDS011;47551;52.506;4.678;2023-11-19T00:57:21;29.83;;;7.40;;
61642;SDS011;47551;52.506;4.678;2023-11-19T00:57:41;28.77;;;7.27;;
61642;SDS011;47551;52.506;4.678;2023-11-19T00:58:01;27.43;;;7.13;;
61642;SDS011;47551;52.506;4.678;2023-11-19T00:58:23;29.23;;;7.28;;
61642;SDS011;47551;52.506;4.678;2023-11-19T00:58:43;29.03;;;7.20;;
61642;SDS011;47551;52.506;4.678;2023-11-19T00:59:03;33.07;;;7.47;;
61642;SDS011;47551;52.506;4.678;2023-11-19T00:59:23;30.08;;;7.38;;
61642;SDS011;47551;52.506;4.678;2023-11-19T00:59:44;31.50;;;7.20;;
61642;SDS011;47551;52.506;4.678;2023-11-19T01:00:05;30.93;;;7.03;;
61642;SDS011;47551;52.506;4.678;2023-11-19T01:00:33;29.75;;;7.35;;
61642;SDS011;47551;52.506;4.678;2023-11-19T01:00:54;31.75;;;7.15;;
61642;SDS011;47551;52.506;4.678;2023-11-19T01:01:17;30.42;;;7.50;;
61642;SDS011;47551;52.506;4.678;2023-11-19T01:01:37;31.37;;;7.77;;
61642;SDS011;47551;52.506;4.678;2023-11-19T01:01:57;31.10;;;7.13;;
61642;SDS011;47551;52.506;4.678;2023-11-19T01:02:18;36.75;;;7.05;;
61642;SDS011;47551;52.506;4.678;2023-11-19T01:02:39;29.63;;;6.33;;
61642;SDS011;47551;52.506;4.678;2023-11-19T01:02:59;29.87;;;6.60;;
61642;SDS011;47551;52.506;4.678;2023-11-19T01:03:20;31.05;;;6.65;;
61642;SDS011;47551;52.506;4.678;2023-11-19T01:03:40;30.83;;;6.60;;
61642;SDS011;47551;52.506;4.678;2023-11-19T01:04:02;32.40;;;6.75;;
61642;SDS011;47551;52.506;4.678;2023-11-19T01:04:22;27.90;;;6.87;;
61642;SDS011;47551;52.506;4.678;2023-11-19T01:04:44;31.00;;;7.40;;
61642;SDS011;47551;52.506;4.678;2023-11-19T01:05:07;29.35;;;6.55;;
61642;SDS011;47551;52.506;4.678;2023-11-19T01:05:28;30.25;;;6.45;;
61642;SDS011;47551;52.506;4.678;2023-11-19T01:05:48;29.83;;;6.50;;
61642;SDS011;47551;52.506;4.678;2023-11-19T01:06:08;28.57;;;6.67;;
61642;SDS011;47551;52.506;4.678;2023-11-19T01:06:29;30.83;;;7.30;;
61642;SDS011;47551;52.506;4.678;2023-11-19T01:06:49;26.05;;;6.35;;
61642;SDS011;47551;52.506;4.678;2023-11-19T01:07:10;31.67;;;6.67;;
61642;SDS011;47551;52.506;4.678;2023-11-19T01:07:33;28.73;;;6.35;;
61642;SDS011;47551;52.506;4.678;2023-11-19T01:07:53;30.53;;;6.47;;
61642;SDS011;47551;52.506;4.678;2023-11-19T01:08:14;29.13;;;6.95;;
61642;SDS011;47551;52.506;4.678;2023-11-19T01:08:35;34.15;;;7.25;;
61642;SDS011;47551;52.506;4.678;2023-11-19T01:08:56;33.80;;;6.80;;
61642;SDS011;47551;52.506;4.678;2023-11-19T01:09:19;31.48;;;6.93;;
61642;SDS011;47551;52.506;4.678;2023-11-19T01:09:41;28.33;;;6.33;;
61642;SDS011;47551;52.506;4.678;2023-11-19T01:10:01;30.15;;;6.60;;
61642;SDS011;47551;52.506;4.678;2023-11-19T01:10:22;31.52;;;6.90;;
61642;SDS011;47551;52.506;4.678;2023-11-19T01:10:46;28.27;;;6.55;;
61642;SDS011;47551;52.506;4.678;2023-11-19T01:11:08;25.98;;;6.47;;
61642;SDS011;47551;52.506;4.678;2023-11-19T01:11:29;29.17;;;6.53;;
61642;SDS011;47551;52.506;4.678;2023-11-19T01:11:49;27.33;;;6.37;;
61642;SDS011;47551;52.506;4.678;2023-11-19T01:12:09;29.33;;;6.93;;
61642;SDS011;47551;52.506;4.678;2023-11-19T01:12:30;32.88;;;7.50;;
61642;SDS011;47551;52.506;4.678;2023-11-19T01:12:51;31.75;;;7.40;;
61642;SDS011;47551;52.506;4.678;2023-11-19T01:13:11;29.73;;;6.80;;
61642;SDS011;47551;52.506;4.678;2023-11-19T01:13:32;28.70;;;6.45;;
61642;SDS011;47551;52.506;4.678;2023-11-19T01:13:52;28.47;;;7.30;;
61642;SDS011;47551;52.506;4.678;2023-11-19T01:14:12;31.93;;;7.27;;
61642;SDS011;47551;52.506;4.678;2023-11-19T01:14:32;30.77;;;6.40;;
61642;SDS011;47551;52.506;4.678;2023-11-19T01:14:52;31.67;;;6.37;;
61642;SDS011;47551;52.506;4.678;2023-11-19T01:15:12;32.10;;;6.93;;
61642;SDS011;47551;52.506;4.678;2023-11-19T01:15:36;31.13;;;7.53;;
61642;SDS011;47551;52.506;4.678;2023-11-19T01:15:56;29.33;;;7.40;;
61642;SDS011;47551;52.506;4.678;2023-11-19T01:16:19;25.08;;;7.28;;
61642;SDS011;47551;52.506;4.678;2023-11-19T01:16:39;32.27;;;7.87;;
61642;SDS011;47551;52.506;4.678;2023-11-19T01:17:02;28.58;;;7.50;;
61642;SDS011;47551;52.506;4.678;2023-11-19T01:17:24;29.67;;;7.03;;
61642;SDS011;47551;52.506;4.678;2023-11-19T01:17:44;26.87;;;6.63;;
61642;SDS011;47551;52.506;4.678;2023-11-19T01:18:05;31.60;;;6.70;;
61642;SDS011;47551;52.506;4.678;2023-11-19T01:18:25;32.13;;;6.60;;
61642;SDS011;47551;52.506;4.678;2023-11-19T01:18:48;29.97;;;6.70;;
61642;SDS011;47551;52.506;4.678;2023-11-19T01:19:08;30.05;;;7.10;;
61642;SDS011;47551;52.506;4.678;2023-11-19T01:19:28;29.87;;;6.80;;
61642;SDS011;47551;52.506;4.678;2023-11-19T01:19:49;30.17;;;7.13;;
61642;SDS011;47551;52.506;4.678;2023-11-19T01:20:13;30.48;;;6.85;;
61642;SDS011;47551;52.506;4.678;2023-11-19T01:20:33;29.27;;;7.15;;
61642;SDS011;47551;52.506;4.678;2023-11-19T01:20:54;32.53;;;7.57;;
61642;SDS011;47551;52.506;4.678;2023-11-19T01:21:14;35.57;;;7.70;;
61642;SDS011;47551;52.506;4.678;2023-11-19T01:21:34;36.97;;;7.83;;
61642;SDS011;47551;52.506;4.678;2023-11-19T01:21:55;35.27;;;7.87;;
61642;SDS011;47551;52.506;4.678;2023-11-19T01:22:15;37.72;;;7.90;;
61642;SDS011;47551;52.506;4.678;2023-11-19T01:22:36;36.07;;;7.80;;
61642;SDS011;47551;52.506;4.678;2023-11-19T01:22:56;34.17;;;7.70;;
61642;SDS011;47551;52.506;4.678;2023-11-19T01:23:16;32.50;;;8.17;;
61642;SDS011;47551;52.506;4.678;2023-11-19T01:23:36;34.08;;;8.68;;
61642;SDS011;47551;52.506;4.678;2023-11-19T01:23:57;31.33;;;8.23;;
61642;SDS011;47551;52.506;4.678;2023-11-19T01:24:18;34.13;;;7.95;;
61642;SDS011;47551;52.506;4.678;2023-11-19T01:24:38;37.80;;;7.97;;
61642;SDS011;47551;52.506;4.678;2023-11-19T01:24:58;35.83;;;8.50;;
61642;SDS011;47551;52.506;4.678;2023-11-19T01:25:19;31.37;;;7.93;;
61642;SDS011;47551;52.506;4.678;2023-11-19T01:25:39;33.90;;;7.83;;
61642;SDS011;47551;52.506;4.678;2023-11-19T01:25:59;34.53;;;8.38;;
61642;SDS011;47551;52.506;4.678;2023-11-19T01:26:19;33.33;;;8.33;;
61642;SDS011;47551;52.506;4.678;2023-11-19T01:26:42;35.93;;;8.90;;
61642;SDS011;47551;52.506;4.678;2023-11-19T01:27:05;33.92;;;8.27;;
61642;SDS011;47551;52.506;4.678;2023-11-19T01:27:25;34.33;;;7.47;;
61642;SDS011;47551;52.506;4.678;2023-11-19T01:27:45;33.97;;;7.60;;
61642;SDS011;47551;52.506;4.678;2023-11-19T01:28:05;34.27;;;8.40;;
61642;SDS011;47551;52.506;4.678;2023-11-19T01:28:26;37.95;;;8.40;;
61642;SDS011;47551;52.506;4.678;2023-11-19T01:28:46;35.63;;;8.30;;
61642;SDS011;47551;52.506;4.678;2023-11-19T01:29:09;35.40;;;8.00;;
61642;SDS011;47551;52.506;4.678;2023-11-19T01:29:29;35.80;;;7.93;;
61642;SDS011;47551;52.506;4.678;2023-11-19T01:29:49;35.63;;;8.33;;
61642;SDS011;47551;52.506;4.678;2023-11-19T01:30:10;34.92;;;8.07;;
61642;SDS011;47551;52.506;4.678;2023-11-19T01:30:35;35.50;;;8.35;;
61642;SDS011;47551;52.506;4.678;2023-11-19T01:30:56;35.30;;;7.78;;
61642;SDS011;47551;52.506;4.678;2023-11-19T01:31:16;35.77;;;8.00;;
61642;SDS011;47551;52.506;4.678;2023-11-19T01:31:36;38.57;;;8.83;;
61642;SDS011;47551;52.506;4.678;2023-11-19T01:31:57;38.75;;;8.50;;
61642;SDS011;47551;52.506;4.678;2023-11-19T01:32:17;33.58;;;7.75;;
61642;SDS011;47551;52.506;4.678;2023-11-19T01:32:37;33.23;;;8.07;;
61642;SDS011;47551;52.506;4.678;2023-11-19T01:32:57;31.57;;;7.63;;
61642;SDS011;47551;52.506;4.678;2023-11-19T01:33:18;36.17;;;7.80;;
61642;SDS011;47551;52.506;4.678;2023-11-19T01:33:38;40.13;;;8.55;;
61642;SDS011;47551;52.506;4.678;2023-11-19T01:33:59;34.97;;;7.35;;
61642;SDS011;47551;52.506;4.678;2023-11-19T01:34:20;35.13;;;7.95;;
61642;SDS011;47551;52.506;4.678;2023-11-19T01:34:40;36.53;;;7.80;;
61642;SDS011;47551;52.506;4.678;2023-11-19T01:35:00;33.37;;;7.70;;
61642;SDS011;47551;52.506;4.678;2023-11-19T01:35:21;34.50;;;7.78;;
61642;SDS011;47551;52.506;4.678;2023-11-19T01:35:42;36.80;;;7.90;;
61642;SDS011;47551;52.506;4.678;2023-11-19T01:36:03;37.08;;;8.00;;
61642;SDS011;47551;52.506;4.678;2023-11-19T01:36:24;35.80;;;8.40;;
61642;SDS011;47551;52.506;4.678;2023-11-19T01:36:44;35.33;;;7.87;;
61642;SDS011;47551;52.506;4.678;2023-11-19T01:37:12;32.90;;;7.70;;
61642;SDS011;47551;52.506;4.678;2023-11-19T01:37:34;35.53;;;7.82;;
61642;SDS011;47551;52.506;4.678;2023-11-19T01:37:57;35.80;;;8.45;;
61642;SDS011;47551;52.506;4.678;2023-11-19T01:38:17;33.67;;;8.30;;
61642;SDS011;47551;52.506;4.678;2023-11-19T01:38:37;35.77;;;8.40;;
61642;SDS011;47551;52.506;4.678;2023-11-19T01:38:57;36.85;;;7.93;;
61642;SDS011;47551;52.506;4.678;2023-11-19T01:39:17;38.10;;;7.83;;
61642;SDS011;47551;52.506;4.678;2023-11-19T01:39:43;33.45;;;7.32;;
61642;SDS011;47551;52.506;4.678;2023-11-19T01:40:04;33.30;;;7.75;;
61642;SDS011;47551;52.506;4.678;2023-11-19T01:40:30;35.47;;;7.80;;
61642;SDS011;47551;52.506;4.678;2023-11-19T01:40:55;36.85;;;8.07;;
61642;SDS011;47551;52.506;4.678;2023-11-19T01:41:15;36.83;;;7.85;;
61642;SDS011;47551;52.506;4.678;2023-11-19T01:41:35;36.00;;;7.57;;
61642;SDS011;47551;52.506;4.678;2023-11-19T01:41:56;32.95;;;7.57;;
61642;SDS011;47551;52.506;4.678;2023-11-19T01:42:16;32.80;;;7.47;;
61642;SDS011;47551;52.506;4.678;2023-11-19T01:42:42;36.03;;;7.43;;
61642;SDS011;47551;52.506;4.678;2023-11-19T01:43:03;33.47;;;7.50;;
61642;SDS011;47551;52.506;4.678;2023-11-19T01:43:42;35.00;;;7.33;;
61642;SDS011;47551;52.506;4.678;2023-11-19T01:44:02;32.95;;;8.13;;
61642;SDS011;47551;52.506;4.678;2023-11-19T01:44:23;33.30;;;7.63;;
61642;SDS011;47551;52.506;4.678;2023-11-19T01:44:53;33.83;;;7.47;;
61642;SDS011;47551;52.506;4.678;2023-11-19T01:45:22;33.35;;;7.13;;
61642;SDS011;47551;52.506;4.678;2023-11-19T01:45:46;32.28;;;7.45;;
61642;SDS011;47551;52.506;4.678;2023-11-19T01:46:07;32.43;;;7.03;;
61642;SDS011;47551;52.506;4.678;2023-11-19T01:46:30;33.53;;;7.18;;
61642;SDS011;47551;52.506;4.678;2023-11-19T01:46:50;33.25;;;7.38;;
61642;SDS011;47551;52.506;4.678;2023-11-19T01:47:13;31.40;;;7.20;;
61642;SDS011;47551;52.506;4.678;2023-11-19T01:47:34;34.23;;;7.17;;
61642;SDS011;47551;52.506;4.678;2023-11-19T01:47:55;32.67;;;6.80;;
61642;SDS011;47551;52.506;4.678;2023-11-19T01:48:15;35.17;;;7.83;;
61642;SDS011;47551;52.506;4.678;2023-11-19T01:48:36;34.90;;;7.87;;
61642;SDS011;47551;52.506;4.678;2023-11-19T01:48:56;34.67;;;7.82;;
61642;SDS011;47551;52.506;4.678;2023-11-19T01:49:20;37.30;;;7.88;;
61642;SDS011;47551;52.506;4.678;2023-11-19T01:49:40;38.25;;;7.68;;
61642;SDS011;47551;52.506;4.678;2023-11-19T01:50:01;37.97;;;7.80;;
61642;SDS011;47551;52.506;4.678;2023-11-19T01:50:22;37.75;;;7.70;;
61642;SDS011;47551;52.506;4.678;2023-11-19T01:50:42;34.08;;;7.28;;
61642;SDS011;47551;52.506;4.678;2023-11-19T01:51:02;33.13;;;7.27;;
61642;SDS011;47551;52.506;4.678;2023-11-19T01:51:23;31.88;;;6.88;;
61642;SDS011;47551;52.506;4.678;2023-11-19T01:51:48;33.05;;;6.88;;
61642;SDS011;47551;52.506;4.678;2023-11-19T01:52:08;34.95;;;7.32;;
61642;SDS011;47551;52.506;4.678;2023-11-19T01:52:28;34.70;;;7.60;;
61642;SDS011;47551;52.506;4.678;2023-11-19T01:52:49;37.90;;;8.13;;
61642;SDS011;47551;52.506;4.678;2023-11-19T01:53:09;37.40;;;8.23;;
61642;SDS011;47551;52.506;4.678;2023-11-19T01:53:29;32.97;;;8.23;;
61642;SDS011;47551;52.506;4.678;2023-11-19T01:53:50;33.60;;;8.03;;
61642;SDS011;47551;52.506;4.678;2023-11-19T01:54:10;34.95;;;7.65;;
61642;SDS011;47551;52.506;4.678;2023-11-19T01:54:31;33.45;;;8.13;;
61642;SDS011;47551;52.506;4.678;2023-11-19T01:54:53;35.55;;;7.93;;
61642;SDS011;47551;52.506;4.678;2023-11-19T01:55:14;34.17;;;8.38;;
61642;SDS011;47551;52.506;4.678;2023-11-19T01:55:34;33.57;;;7.93;;
61642;SDS011;47551;52.506;4.678;2023-11-19T01:55:54;34.10;;;7.80;;
61642;SDS011;47551;52.506;4.678;2023-11-19T01:56:15;35.88;;;7.88;;
61642;SDS011;47551;52.506;4.678;2023-11-19T01:56:38;38.42;;;8.00;;
61642;SDS011;47551;52.506;4.678;2023-11-19T01:57:00;32.53;;;7.30;;
61642;SDS011;47551;52.506;4.678;2023-11-19T01:57:21;34.47;;;7.93;;
61642;SDS011;47551;52.506;4.678;2023-11-19T01:57:42;32.75;;;7.57;;
61642;SDS011;47551;52.506;4.678;2023-11-19T01:58:02;29.43;;;7.23;;
61642;SDS011;47551;52.506;4.678;2023-11-19T01:58:23;29.40;;;7.63;;
61642;SDS011;47551;52.506;4.678;2023-11-19T01:58:43;35.00;;;7.70;;
61642;SDS011;47551;52.506;4.678;2023-11-19T01:59:04;33.45;;;7.97;;
61642;SDS011;47551;52.506;4.678;2023-11-19T01:59:25;33.40;;;7.37;;
61642;SDS011;47551;52.506;4.678;2023-11-19T01:59:46;34.00;;;8.35;;
61642;SDS011;47551;52.506;4.678;2023-11-19T02:00:07;35.67;;;8.50;;
61642;SDS011;47551;52.506;4.678;2023-11-19T02:00:31;39.45;;;7.88;;
61642;SDS011;47551;52.506;4.678;2023-11-19T02:00:53;42.30;;;8.38;;
61642;SDS011;47551;52.506;4.678;2023-11-19T02:01:13;35.97;;;8.70;;
61642;SDS011;47551;52.506;4.678;2023-11-19T02:01:33;37.53;;;8.27;;
61642;SDS011;47551;52.506;4.678;2023-11-19T02:01:57;36.47;;;8.05;;
61642;SDS011;47551;52.506;4.678;2023-11-19T02:02:18;30.40;;;7.37;;
61642;SDS011;47551;52.506;4.678;2023-11-19T02:02:42;37.22;;;8.15;;
61642;SDS011;47551;52.506;4.678;2023-11-19T02:03:03;39.65;;;8.77;;
61642;SDS011;47551;52.506;4.678;2023-11-19T02:03:23;36.07;;;8.43;;
61642;SDS011;47551;52.506;4.678;2023-11-19T02:03:45;32.80;;;7.78;;
61642;SDS011;47551;52.506;4.678;2023-11-19T02:04:07;37.35;;;8.25;;
61642;SDS011;47551;52.506;4.678;2023-11-19T02:04:37;34.13;;;8.10;;
61642;SDS011;47551;52.506;4.678;2023-11-19T02:04:58;32.15;;;8.50;;
61642;SDS011;47551;52.506;4.678;2023-11-19T02:05:18;34.10;;;8.77;;